Time;durP1;ratioP1;P1;durP2;ratioP2;P2;SDS_P1;SDS_P2;PMS_P1;PMS_P2;Temp;Humidity;BMP_temperature;BMP_pressure;BME280_temperature;BME280_humidity;BME280_pressure;Samples;Min_cycle;Max_cycle;Signal;HPM_P1;HPM_P2
2023/06/08 00:02:19;;;;;;;7.23;6.53;;;;;;;19.05;49.93;96038.78;4987351;28;20526;-70
2023/06/08 00:04:45;;;;;;;8.83;7.57;;;;;;;19.03;49.99;96046.03;4987293;28;20247;-70
2023/06/08 00:07:14;;;;;;;10.87;7.67;;;;;;;19.12;49.74;96039.13;4987564;28;20680;-70
2023/06/08 00:09:40;;;;;;;18.93;8.53;;;;;;;18.93;49.97;96039.81;4987484;28;20442;-70
2023/06/08 00:12:06;;;;;;;13.40;8.03;;;;;;;18.99;49.90;96039.28;4987286;28;20610;-71
2023/06/08 00:14:34;;;;;;;10.33;7.17;;;;;;;18.93;49.78;96039.81;4986864;28;20416;-71
2023/06/08 00:17:02;;;;;;;12.03;7.40;;;;;;;18.91;50.05;96047.06;4987464;28;20781;-71
2023/06/08 00:19:29;;;;;;;8.73;7.50;;;;;;;18.80;50.09;96046.16;4987358;28;20486;-71
2023/06/08 00:21:56;;;;;;;8.00;6.90;;;;;;;18.73;50.29;96041.41;4986989;28;20432;-70
2023/06/08 00:24:22;;;;;;;8.10;7.30;;;;;;;18.74;50.15;96054.59;4986935;28;20450;-71
2023/06/08 00:26:48;;;;;;;7.70;6.73;;;;;;;18.70;50.52;96044.34;4987296;28;20448;-71
2023/06/08 00:29:13;;;;;;;11.63;8.23;;;;;;;18.46;50.88;96048.03;4987025;28;20772;-71
2023/06/08 00:31:38;;;;;;;10.40;7.10;;;;;;;18.46;51.42;96047.19;4987305;28;20177;-70
2023/06/08 00:34:04;;;;;;;20.40;9.07;;;;;;;18.38;51.47;96053.97;5000699;28;20256;-71
2023/06/08 00:36:29;;;;;;;19.53;8.60;;;;;;;18.36;51.59;96049.75;5001856;28;20250;-70
2023/06/08 00:38:55;;;;;;;9.57;7.70;;;;;;;18.13;52.45;96049.75;5000273;28;20272;-71
2023/06/08 00:41:20;;;;;;;13.10;9.13;;;;;;;18.20;52.29;96050.97;5002741;28;20177;-70
2023/06/08 00:43:46;;;;;;;12.40;7.93;;;;;;;18.19;52.57;96051.94;4998765;28;20259;-71
2023/06/08 00:46:13;;;;;;;12.40;7.50;;;;;;;17.91;53.69;96052.44;4988598;28;20172;-71
2023/06/08 00:48:40;;;;;;;7.90;6.90;;;;;;;17.68;54.17;96060.34;4987478;28;20215;-71
2023/06/08 00:51:07;;;;;;;8.60;7.80;;;;;;;17.50;54.99;96057.34;4986966;28;21263;-70
2023/06/08 00:53:35;;;;;;;12.90;8.77;;;;;;;17.53;55.17;96053.59;4986779;28;20471;-71
2023/06/08 00:56:01;;;;;;;19.00;9.80;;;;;;;17.53;55.29;96051.78;4990393;28;20906;-69
2023/06/08 00:58:28;;;;;;;12.87;8.67;;;;;;;17.58;55.08;96047.94;4990991;28;20418;-71
2023/06/08 01:00:59;;;;;;;16.90;8.37;;;;;;;17.76;54.99;96059.75;4991019;28;20435;-71
2023/06/08 01:03:33;;;;;;;9.40;8.50;;;;;;;17.65;55.05;96049.16;4990735;28;20956;-71
2023/06/08 01:06:02;;;;;;;10.00;8.87;;;;;;;17.67;55.28;96040.09;4991128;28;20404;-70
2023/06/08 01:08:52;;;;;;;10.23;9.00;;;;;;;17.68;55.88;96039.13;4990946;28;20596;-70
2023/06/08 01:11:37;;;;;;;9.80;8.97;;;;;;;17.69;56.44;96037.31;4990745;28;20455;-71
2023/06/08 01:14:24;;;;;;;15.07;9.93;;;;;;;17.71;56.36;96030.91;4990235;28;20875;-71
2023/06/08 01:16:52;;;;;;;14.53;9.60;;;;;;;17.50;56.69;96030.81;4990534;28;20412;-71
2023/06/08 01:19:43;;;;;;;22.10;10.20;;;;;;;17.52;57.14;96035.97;4990598;28;20490;-69
2023/06/08 01:22:28;;;;;;;10.00;8.20;;;;;;;17.51;56.74;96029.00;4990318;28;20808;-70
2023/06/08 01:24:59;;;;;;;14.33;8.97;;;;;;;17.45;57.40;96034.75;4990092;28;21260;-71
2023/06/08 01:27:26;;;;;;;10.17;9.27;;;;;;;17.52;56.98;96030.66;4990360;28;20467;-71
2023/06/08 01:29:51;;;;;;;9.70;8.70;;;;;;;17.55;57.06;96031.28;4990420;28;20440;-70
2023/06/08 01:32:20;;;;;;;11.80;8.40;;;;;;;17.38;57.28;96029.06;4990314;28;20483;-71
2023/06/08 01:34:46;;;;;;;13.63;8.60;;;;;;;17.35;56.82;96029.31;4990436;28;20771;-71
2023/06/08 01:37:23;;;;;;;19.70;10.67;;;;;;;17.31;56.59;96025.22;4990028;28;20494;-71
2023/06/08 01:39:55;;;;;;;23.17;10.23;;;;;;;17.42;56.28;96032.34;4990302;28;20438;-71
2023/06/08 01:42:23;;;;;;;29.20;10.13;;;;;;;17.34;56.21;96031.13;4988548;28;20452;-71
2023/06/08 01:44:59;;;;;;;16.60;8.97;;;;;;;17.33;56.03;96020.63;4989619;28;20419;-71
2023/06/08 01:47:32;;;;;;;22.97;10.40;;;;;;;17.42;55.55;96025.22;4989569;28;20407;-70
2023/06/08 01:49:58;;;;;;;12.33;8.50;;;;;;;17.40;55.01;96024.50;4989665;28;20448;-70
2023/06/08 01:52:24;;;;;;;16.77;7.63;;;;;;;17.41;55.22;96017.38;4989483;28;20936;-70
2023/06/08 01:54:49;;;;;;;15.43;9.40;;;;;;;17.33;55.32;96024.13;4989253;28;20554;-70
2023/06/08 01:57:15;;;;;;;18.60;9.20;;;;;;;17.24;55.50;96021.34;4989450;28;20173;-70
2023/06/08 01:59:40;;;;;;;19.40;10.30;;;;;;;17.30;55.31;96026.19;4989364;28;20231;-71
2023/06/08 02:02:06;;;;;;;15.60;9.17;;;;;;;17.21;55.15;96018.94;4989439;28;20180;-70
2023/06/08 02:04:31;;;;;;;18.17;9.13;;;;;;;17.11;55.83;96013.50;4989272;28;20179;-70
2023/06/08 02:06:56;;;;;;;9.67;8.10;;;;;;;16.95;56.08;96019.09;4989207;28;20191;-71
2023/06/08 02:09:22;;;;;;;15.20;9.87;;;;;;;17.06;55.71;96010.34;4989273;28;20730;-70
2023/06/08 02:11:47;;;;;;;21.40;8.73;;;;;;;17.05;56.03;96006.81;4991899;28;20177;-69
2023/06/08 02:14:12;;;;;;;9.40;7.57;;;;;;;17.21;54.85;96006.50;4989201;28;20611;-71
2023/06/08 02:16:38;;;;;;;14.50;8.80;;;;;;;17.26;54.70;96009.66;4989315;28;20176;-71
2023/06/08 02:19:03;;;;;;;26.20;9.30;;;;;;;17.27;54.42;96011.34;4989204;28;20219;-70
2023/06/08 02:21:29;;;;;;;10.53;7.57;;;;;;;17.32;53.93;96018.97;4989136;28;20293;-71
2023/06/08 02:23:55;;;;;;;12.27;8.17;;;;;;;17.39;54.29;96008.72;4988922;28;20989;-71
2023/06/08 02:26:22;;;;;;;8.60;7.70;;;;;;;17.30;53.81;96018.22;4988965;28;20562;-70
2023/06/08 02:28:47;;;;;;;9.60;7.63;;;;;;;17.24;53.94;96014.22;4989192;28;20200;-71
2023/06/08 02:31:13;;;;;;;22.43;9.90;;;;;;;17.27;53.24;96016.66;4989082;28;20448;-71
2023/06/08 02:33:38;;;;;;;33.33;9.40;;;;;;;17.27;53.20;96021.13;4988647;28;20213;-70
2023/06/08 02:36:04;;;;;;;16.93;8.00;;;;;;;17.15;53.59;96022.91;4989200;28;20184;-69
2023/06/08 02:38:30;;;;;;;8.97;8.03;;;;;;;17.20;53.40;96022.56;4989000;28;20172;-69
2023/06/08 02:40:55;;;;;;;9.43;7.23;;;;;;;17.24;53.36;96016.03;4989087;28;20172;-69
2023/06/08 02:43:21;;;;;;;8.07;7.37;;;;;;;17.14;53.93;96013.25;4988763;28;20408;-71
2023/06/08 02:45:46;;;;;;;9.37;8.40;;;;;;;17.13;54.06;96019.53;4987484;28;20188;-71
2023/06/08 02:48:11;;;;;;;12.47;8.77;;;;;;;17.05;54.49;96017.44;4988768;28;20967;-71
2023/06/08 02:50:37;;;;;;;10.97;6.90;;;;;;;17.04;54.10;96014.91;4988694;28;20231;-71
2023/06/08 02:53:02;;;;;;;16.37;8.97;;;;;;;17.00;54.48;96022.25;4988354;28;20299;-71
2023/06/08 02:55:34;;;;;;;10.50;8.30;;;;;;;16.93;54.64;96019.19;4988394;28;20243;-70
2023/06/08 02:58:00;;;;;;;10.23;8.37;;;;;;;16.83;54.56;96015.56;4989078;28;20661;-70
2023/06/08 03:00:26;;;;;;;11.73;9.30;;;;;;;16.84;54.49;96014.63;4988511;28;20495;-70
2023/06/08 03:02:51;;;;;;;29.47;9.70;;;;;;;16.75;54.80;96017.06;4988396;28;20416;-72
2023/06/08 03:05:17;;;;;;;9.70;7.97;;;;;;;16.72;54.69;96020.78;4988233;28;20176;-71
2023/06/08 03:07:42;;;;;;;10.90;7.70;;;;;;;16.78;53.94;96014.19;4988830;28;20176;-70
2023/06/08 03:10:08;;;;;;;11.63;7.80;;;;;;;16.73;53.73;96017.19;4988277;28;20250;-70
2023/06/08 03:12:34;;;;;;;8.53;7.70;;;;;;;16.78;53.58;96024.78;4988394;28;20223;-71
2023/06/08 03:15:00;;;;;;;8.80;7.90;;;;;;;16.87;52.96;96018.84;4987555;28;20412;-70
2023/06/08 03:17:26;;;;;;;9.03;8.13;;;;;;;16.76;53.06;96016.13;4987822;28;20180;-71
2023/06/08 03:19:55;;;;;;;23.60;7.87;;;;;;;16.70;53.46;96028.00;4988197;28;20200;-71
2023/06/08 03:22:20;;;;;;;27.50;9.83;;;;;;;16.79;53.41;96021.22;4987995;28;20940;-71
2023/06/08 03:24:49;;;;;;;9.67;7.13;;;;;;;16.66;54.08;96016.78;4988027;28;20447;-70
2023/06/08 03:27:16;;;;;;;11.87;8.40;;;;;;;16.77;54.00;96012.50;4988308;28;20188;-71
2023/06/08 03:29:41;;;;;;;8.37;7.57;;;;;;;16.90;53.82;96015.97;4988019;28;20431;-71
2023/06/08 03:32:07;;;;;;;25.23;9.90;;;;;;;16.85;54.02;96011.00;4988054;28;21407;-71
2023/06/08 03:34:32;;;;;;;27.03;10.77;;;;;;;16.96;54.04;96009.34;4987747;28;20181;-70
2023/06/08 03:36:57;;;;;;;33.17;8.90;;;;;;;16.95;53.73;96011.16;4988172;28;20261;-71
2023/06/08 03:39:23;;;;;;;10.07;8.00;;;;;;;17.03;53.05;96019.38;4987898;28;20207;-71
2023/06/08 03:41:49;;;;;;;8.50;7.43;;;;;;;16.93;53.87;96013.06;4988118;28;20649;-71
2023/06/08 03:44:15;;;;;;;7.77;7.10;;;;;;;16.96;53.21;96012.84;4987795;28;20272;-70
2023/06/08 03:46:40;;;;;;;10.60;8.13;;;;;;;16.99;53.24;96017.06;4987732;28;20239;-70
2023/06/08 03:49:05;;;;;;;8.97;8.00;;;;;;;17.01;53.28;96016.00;4988143;28;20342;-71
2023/06/08 03:51:31;;;;;;;16.10;9.47;;;;;;;17.10;52.76;96014.44;4986775;28;20267;-70
2023/06/08 03:53:56;;;;;;;29.87;8.93;;;;;;;17.19;52.14;96019.03;4997910;28;20228;-71
2023/06/08 03:56:21;;;;;;;30.07;9.63;;;;;;;17.13;52.24;96016.88;4998420;28;20626;-71
2023/06/08 03:58:48;;;;;;;24.37;9.70;;;;;;;17.13;51.95;96020.34;4997778;28;20209;-70
2023/06/08 04:01:14;;;;;;;11.87;7.30;;;;;;;17.12;52.24;96018.66;5002282;28;20181;-71
2023/06/08 04:03:41;;;;;;;13.50;7.87;;;;;;;17.20;51.65;96022.56;4991012;28;20559;-71
2023/06/08 04:06:08;;;;;;;11.80;7.63;;;;;;;17.39;51.46;96022.00;4987896;28;20192;-70
2023/06/08 04:08:44;;;;;;;8.80;7.00;;;;;;;17.45;50.96;96024.16;4991462;28;20436;-70
2023/06/08 04:11:11;;;;;;;10.60;8.10;;;;;;;17.50;50.87;96020.19;4987719;28;20725;-71
2023/06/08 04:13:37;;;;;;;16.80;8.80;;;;;;;17.73;50.52;96021.03;4986016;28;20456;-70
2023/06/08 04:16:08;;;;;;;19.00;9.23;;;;;;;17.69;50.29;96022.25;4987879;28;20498;-71
2023/06/08 04:18:33;;;;;;;14.00;7.87;;;;;;;17.82;50.28;96027.47;4987832;28;20486;-69
2023/06/08 04:20:58;;;;;;;11.90;8.33;;;;;;;17.93;49.69;96019.50;4987805;28;20412;-69
2023/06/08 04:23:24;;;;;;;19.33;8.07;;;;;;;18.05;49.63;96028.31;4987241;28;20182;-70
2023/06/08 04:25:49;;;;;;;8.97;8.07;;;;;;;18.08;49.57;96025.38;4987567;28;20197;-70
2023/06/08 04:28:15;;;;;;;7.63;7.03;;;;;;;18.17;49.28;96027.31;4987680;28;20177;-71
2023/06/08 04:30:40;;;;;;;8.63;7.83;;;;;;;18.35;48.63;96022.34;4990018;28;20269;-71
2023/06/08 04:33:06;;;;;;;8.13;7.33;;;;;;;18.45;48.36;96032.19;4991634;28;20295;-71
2023/06/08 04:35:32;;;;;;;9.47;7.17;;;;;;;18.41;48.43;96028.97;4991412;28;20188;-71
2023/06/08 04:37:57;;;;;;;18.57;9.10;;;;;;;18.50;48.46;96038.00;4991591;28;20255;-69
2023/06/08 04:40:25;;;;;;;24.70;8.67;;;;;;;18.50;48.38;96035.34;4991609;28;20201;-71
2023/06/08 04:42:51;;;;;;;36.33;12.40;;;;;;;18.49;48.44;96041.59;4991555;28;20207;-68
2023/06/08 04:45:18;;;;;;;28.03;10.33;;;;;;;18.46;48.76;96037.38;4991463;28;20921;-71
2023/06/08 04:47:45;;;;;;;10.07;7.77;;;;;;;18.73;48.18;96033.44;4991906;28;20708;-69
2023/06/08 04:50:10;;;;;;;17.70;8.10;;;;;;;18.72;48.09;96040.56;4992082;28;20988;-69
2023/06/08 04:52:40;;;;;;;44.00;11.67;;;;;;;18.78;47.70;96037.47;4992536;28;20459;-69
2023/06/08 04:55:07;;;;;;;24.10;11.93;;;;;;;18.86;48.06;96039.47;5000822;28;20181;-71
2023/06/08 04:57:33;;;;;;;19.53;7.90;;;;;;;18.97;48.01;96036.78;5010352;28;20435;-71
2023/06/08 04:59:59;;;;;;;8.43;7.73;;;;;;;19.15;47.69;96042.34;5009889;28;20470;-71
2023/06/08 05:02:25;;;;;;;8.50;7.67;;;;;;;19.19;47.67;96030.47;5008249;28;20169;-71
2023/06/08 05:04:50;;;;;;;8.50;7.63;;;;;;;19.30;47.82;96032.25;5005888;28;20177;-70
2023/06/08 05:07:15;;;;;;;8.30;7.60;;;;;;;19.38;47.58;96032.44;4991898;28;20180;-71
2023/06/08 05:09:41;;;;;;;11.23;8.70;;;;;;;19.54;47.85;96044.44;4993277;28;20252;-71
2023/06/08 05:12:06;;;;;;;30.80;12.20;;;;;;;19.64;47.55;96045.34;4994906;28;20292;-71
2023/06/08 05:14:32;;;;;;;30.00;12.23;;;;;;;19.85;47.38;96040.00;4993931;28;20909;-71
2023/06/08 05:16:57;;;;;;;28.50;10.70;;;;;;;19.80;47.38;96042.22;4994986;28;20169;-71
2023/06/08 05:19:22;;;;;;;13.37;9.63;;;;;;;19.46;47.89;96048.59;4999645;28;20192;-71
2023/06/08 05:21:48;;;;;;;20.20;9.80;;;;;;;19.31;48.66;96044.56;4994037;28;20203;-71
2023/06/08 05:24:13;;;;;;;10.57;9.50;;;;;;;19.13;49.56;96040.78;4989286;28;20180;-70
2023/06/08 05:26:39;;;;;;;10.13;9.13;;;;;;;19.49;49.09;96050.16;4989321;28;20177;-70
2023/06/08 05:29:04;;;;;;;13.73;10.33;;;;;;;19.55;49.25;96046.13;4992565;28;20189;-70
2023/06/08 05:31:30;;;;;;;15.83;9.60;;;;;;;19.98;48.45;96031.78;4989335;28;20741;-70
2023/06/08 05:33:55;;;;;;;11.70;10.47;;;;;;;20.09;48.21;96039.69;4988751;28;20657;-70
2023/06/08 05:36:21;;;;;;;10.77;9.77;;;;;;;20.41;47.89;96028.84;4989042;28;20580;-70
2023/06/08 05:38:46;;;;;;;11.00;10.00;;;;;;;20.72;47.23;96039.44;4989332;28;20193;-71
2023/06/08 05:41:12;;;;;;;15.37;10.30;;;;;;;20.86;47.11;96036.38;4988644;28;21027;-71
2023/06/08 05:43:37;;;;;;;16.70;11.03;;;;;;;21.13;46.65;96035.66;4989007;28;20165;-70
2023/06/08 05:46:02;;;;;;;24.47;11.37;;;;;;;21.06;47.10;96039.03;4989076;28;20181;-71
2023/06/08 05:48:28;;;;;;;28.63;12.20;;;;;;;21.01;47.57;96041.28;4988949;28;20184;-71
2023/06/08 05:50:53;;;;;;;26.23;12.03;;;;;;;21.31;47.10;96041.13;4988692;28;20263;-71
2023/06/08 05:53:18;;;;;;;21.93;11.13;;;;;;;21.03;48.04;96041.97;4988746;28;20685;-72
2023/06/08 05:55:44;;;;;;;13.30;12.00;;;;;;;20.69;49.10;96043.22;4988754;28;20180;-71
2023/06/08 05:58:10;;;;;;;14.20;12.80;;;;;;;20.29;50.77;96046.75;4989300;28;20177;-70
2023/06/08 06:00:36;;;;;;;12.77;11.57;;;;;;;20.34;50.17;96048.16;4989284;28;20184;-71
2023/06/08 06:03:01;;;;;;;12.47;11.37;;;;;;;20.54;50.13;96033.91;4989244;28;20409;-71
2023/06/08 06:05:27;;;;;;;13.53;11.93;;;;;;;20.53;50.52;96037.56;4988897;28;20200;-70
2023/06/08 06:07:52;;;;;;;12.03;10.93;;;;;;;20.70;50.41;96044.06;4988900;28;20173;-70
2023/06/08 06:10:18;;;;;;;12.70;11.60;;;;;;;20.75;50.50;96033.81;4988730;28;20185;-71
2023/06/08 06:12:43;;;;;;;18.47;13.23;;;;;;;20.47;51.90;96038.09;4988437;28;20197;-70
2023/06/08 06:15:09;;;;;;;15.50;13.87;;;;;;;20.06;53.80;96039.97;4988080;28;20173;-70
2023/06/08 06:17:35;;;;;;;16.60;14.93;;;;;;;20.14;53.64;96034.78;4988421;28;20551;-69
2023/06/08 06:20:00;;;;;;;15.40;13.90;;;;;;;20.18;53.87;96030.03;4988301;28;20443;-71
2023/06/08 06:22:26;;;;;;;21.30;14.97;;;;;;;20.70;52.54;96036.91;4949091;28;1148640;-69
2023/06/08 06:24:51;;;;;;;13.70;12.47;;;;;;;20.60;52.70;96040.53;4988945;28;20199;-73
2023/06/08 06:27:19;;;;;;;15.70;13.67;;;;;;;20.07;54.47;96045.13;4989336;28;20234;-72
2023/06/08 06:29:44;;;;;;;18.73;14.10;;;;;;;19.86;55.23;96039.84;4989440;28;20212;-70
2023/06/08 06:32:10;;;;;;;14.90;13.40;;;;;;;19.89;55.45;96044.09;4990143;28;20460;-70
2023/06/08 06:34:35;;;;;;;16.20;14.43;;;;;;;20.00;55.55;96035.16;4989067;28;20264;-69
2023/06/08 06:37:00;;;;;;;14.87;13.67;;;;;;;20.32;54.51;96029.66;4989276;28;20267;-70
2023/06/08 06:39:28;;;;;;;15.63;14.33;;;;;;;19.88;55.57;96043.22;4989341;28;20223;-70
2023/06/08 06:41:53;;;;;;;14.67;13.20;;;;;;;19.78;56.53;96037.03;4989209;28;20185;-72
2023/06/08 06:44:18;;;;;;;17.03;13.63;;;;;;;20.38;54.89;96036.25;4988704;28;20984;-71
2023/06/08 06:46:44;;;;;;;15.27;13.83;;;;;;;20.96;53.30;96036.38;4988983;28;20252;-69
2023/06/08 06:49:09;;;;;;;15.20;13.80;;;;;;;21.54;51.41;96038.16;4989175;28;20612;-72
2023/06/08 06:51:36;;;;;;;16.17;14.53;;;;;;;21.06;52.39;96041.69;4988353;28;20180;-71
2023/06/08 06:54:02;;;;;;;15.70;14.33;;;;;;;21.42;52.08;96032.13;4987687;28;20204;-71
2023/06/08 06:56:27;;;;;;;14.53;13.23;;;;;;;21.67;51.23;96041.34;4988560;28;20502;-70
2023/06/08 06:58:52;;;;;;;14.50;13.07;;;;;;;21.87;50.77;96027.94;4988661;28;20203;-70
2023/06/08 07:01:18;;;;;;;24.77;14.03;;;;;;;22.11;50.45;96030.06;4989043;28;20169;-70
2023/06/08 07:03:46;;;;;;;14.30;13.00;;;;;;;22.04;50.44;96031.66;4988286;28;20172;-69
2023/06/08 07:06:12;;;;;;;15.33;13.70;;;;;;;22.07;50.02;96029.56;4988607;28;20768;-70
2023/06/08 07:08:39;;;;;;;23.07;13.60;;;;;;;22.49;49.38;96028.22;4992571;28;20513;-71
2023/06/08 07:11:05;;;;;;;14.27;12.77;;;;;;;21.85;51.01;96036.13;5010673;28;20486;-71
2023/06/08 07:13:31;;;;;;;15.90;14.40;;;;;;;22.21;50.00;96027.41;5003876;28;20472;-73
2023/06/08 07:15:57;;;;;;;13.67;12.40;;;;;;;22.11;50.12;96028.28;5000489;28;20323;-72
2023/06/08 07:18:22;;;;;;;15.40;14.00;;;;;;;22.15;50.11;96023.47;4994691;28;20411;-70
2023/06/08 07:20:48;;;;;;;15.07;13.67;;;;;;;22.34;50.04;96030.56;4988795;28;20470;-70
2023/06/08 07:23:13;;;;;;;16.43;15.07;;;;;;;22.35;49.46;96030.44;4987877;28;20189;-70
2023/06/08 07:25:39;;;;;;;16.37;14.97;;;;;;;21.72;51.67;96032.91;4987733;28;20173;-71
2023/06/08 07:28:05;;;;;;;14.70;13.37;;;;;;;21.50;52.26;96026.94;4988001;28;20657;-71
2023/06/08 07:30:31;;;;;;;15.73;14.13;;;;;;;21.48;52.70;96028.91;4986754;28;20200;-71
2023/06/08 07:32:58;;;;;;;27.87;15.70;;;;;;;21.62;52.28;96030.28;4987841;28;20479;-71
2023/06/08 07:35:23;;;;;;;19.07;14.73;;;;;;;21.86;51.93;96023.59;4987808;28;20478;-72
2023/06/08 07:37:49;;;;;;;17.27;15.70;;;;;;;21.53;52.46;96028.47;4988045;28;20519;-72
2023/06/08 07:40:17;;;;;;;15.10;13.50;;;;;;;21.89;51.28;96020.63;4988069;28;20523;-70
2023/06/08 07:42:43;;;;;;;16.00;14.33;;;;;;;22.06;50.94;96027.84;4988179;28;20654;-71
2023/06/08 07:45:09;;;;;;;20.73;13.97;;;;;;;22.46;49.78;96021.34;4987729;28;20419;-71
2023/06/08 07:47:34;;;;;;;16.57;14.70;;;;;;;22.67;49.42;96015.72;4988201;28;20772;-71
2023/06/08 07:50:00;;;;;;;16.03;14.50;;;;;;;22.33;48.93;96010.19;4988061;28;20197;-71
2023/06/08 07:52:25;;;;;;;15.83;14.27;;;;;;;22.29;48.71;96017.66;4987527;28;20193;-72
2023/06/08 07:54:51;;;;;;;14.47;13.10;;;;;;;22.82;48.37;96008.03;4987478;28;20193;-72
2023/06/08 07:57:18;;;;;;;28.97;14.30;;;;;;;23.04;47.70;96002.22;4987631;28;20176;-71
2023/06/08 07:59:43;;;;;;;17.20;12.63;;;;;;;23.63;45.47;96007.03;4987914;28;20192;-71
2023/06/08 08:02:09;;;;;;;13.50;12.30;;;;;;;22.83;46.71;96009.69;4987515;28;20448;-70
2023/06/08 08:04:35;;;;;;;12.63;11.23;;;;;;;23.32;44.70;96010.16;4987105;28;20961;-70
2023/06/08 08:07:01;;;;;;;12.30;11.03;;;;;;;23.72;43.57;96019.47;4987580;28;20172;-71
2023/06/08 08:09:26;;;;;;;12.03;11.00;;;;;;;24.10;42.60;96009.31;4987454;28;20211;-71
2023/06/08 08:11:52;;;;;;;15.07;13.57;;;;;;;23.41;43.27;96013.72;4987859;28;20187;-72
2023/06/08 08:14:17;;;;;;;12.37;11.23;;;;;;;24.33;41.66;96011.41;4987349;28;20291;-70
2023/06/08 08:16:42;;;;;;;26.73;11.43;;;;;;;25.04;40.68;96007.38;4987918;28;20176;-71
2023/06/08 08:19:08;;;;;;;13.80;11.77;;;;;;;24.99;38.84;96005.19;4987466;28;20196;-70
2023/06/08 08:21:33;;;;;;;15.13;10.90;;;;;;;25.10;38.12;96007.56;4987252;28;20260;-70
2023/06/08 08:24:00;;;;;;;12.70;11.40;;;;;;;24.43;39.25;96006.75;4987067;28;20176;-71
2023/06/08 08:26:25;;;;;;;21.33;11.13;;;;;;;24.87;38.76;96010.06;4987745;28;20252;-70
2023/06/08 08:28:51;;;;;;;12.23;11.07;;;;;;;24.24;38.84;96008.69;4987506;28;20539;-71
2023/06/08 08:31:16;;;;;;;15.47;11.77;;;;;;;23.99;39.22;96017.63;4987412;28;20181;-71
2023/06/08 08:33:43;;;;;;;12.60;11.30;;;;;;;24.33;39.13;96003.34;4986530;28;20923;-70
2023/06/08 08:36:08;;;;;;;11.23;9.90;;;;;;;24.81;37.55;96008.06;4987169;28;20179;-70
2023/06/08 08:38:34;;;;;;;11.67;10.57;;;;;;;25.12;36.98;95997.50;4987153;28;20432;-72
2023/06/08 08:41:11;;;;;;;12.50;11.27;;;;;;;25.18;38.80;96000.56;4987207;28;20187;-71
2023/06/08 08:43:45;;;;;;;13.63;12.43;;;;;;;25.32;39.02;95997.19;4986683;28;20172;-70
2023/06/08 08:46:11;;;;;;;12.53;11.33;;;;;;;25.29;39.69;95995.69;4986805;28;20439;-71
2023/06/08 08:48:42;;;;;;;11.80;10.80;;;;;;;24.65;38.54;96003.47;4986913;28;20769;-71
2023/06/08 08:51:13;;;;;;;11.47;10.47;;;;;;;24.83;38.90;95999.84;4986968;28;20413;-71
2023/06/08 08:53:40;;;;;;;10.83;9.87;;;;;;;24.98;37.23;95994.66;4986626;28;20466;-69
2023/06/08 08:56:06;;;;;;;10.67;9.57;;;;;;;25.25;37.00;95990.81;4986977;28;20473;-70
2023/06/08 08:58:33;;;;;;;13.83;10.47;;;;;;;25.96;36.59;95995.44;4986955;28;20428;-70
2023/06/08 09:00:59;;;;;;;11.70;9.93;;;;;;;25.76;35.15;95999.50;4986977;28;20180;-69
2023/06/08 09:03:25;;;;;;;11.00;10.03;;;;;;;24.89;38.28;95999.16;4986393;28;20408;-70
2023/06/08 09:05:51;;;;;;;11.70;9.30;;;;;;;25.43;35.41;95986.09;4986728;28;20173;-71
2023/06/08 09:08:17;;;;;;;10.37;9.27;;;;;;;25.31;35.05;95992.84;4986767;28;20244;-71
2023/06/08 09:10:42;;;;;;;10.87;9.77;;;;;;;25.16;35.97;95989.97;4989953;28;20558;-72
2023/06/08 09:13:20;;;;;;;11.77;10.77;;;;;;;24.59;36.86;95993.44;4995098;28;20227;-70
2023/06/08 09:15:46;;;;;;;10.00;9.03;;;;;;;25.12;36.64;95984.06;4987578;28;20795;-72
2023/06/08 09:18:17;;;;;;;23.43;11.70;;;;;;;25.12;36.95;95986.75;4990458;28;20527;-72
2023/06/08 09:20:43;;;;;;;14.17;10.77;;;;;;;25.34;36.29;95985.25;4990829;28;20447;-72
2023/06/08 09:23:25;;;;;;;11.20;10.13;;;;;;;25.32;36.78;95984.63;4990486;28;20794;-71
2023/06/08 09:25:53;;;;;;;10.90;9.80;;;;;;;25.72;35.70;95971.28;4990149;28;20458;-71
2023/06/08 09:28:24;;;;;;;13.53;9.70;;;;;;;25.88;35.27;95976.63;4990567;28;20430;-71
2023/06/08 09:30:50;;;;;;;11.83;9.57;;;;;;;25.88;34.74;95978.50;4987211;28;20502;-69
2023/06/08 09:33:34;;;;;;;9.23;7.63;;;;;;;25.89;31.68;95980.16;4987696;28;20460;-72
2023/06/08 09:36:01;;;;;;;15.83;9.27;;;;;;;25.64;34.51;95992.81;4989640;28;20405;-71
2023/06/08 09:38:28;;;;;;;13.77;9.27;;;;;;;25.12;34.83;95977.88;4990103;28;20408;-71
2023/06/08 09:41:14;;;;;;;9.80;8.20;;;;;;;25.97;33.44;95972.91;4989996;28;20829;-70
2023/06/08 09:43:43;;;;;;;9.90;8.90;;;;;;;25.02;33.18;95975.34;4989671;28;20450;-72
2023/06/08 09:46:16;;;;;;;8.60;7.70;;;;;;;25.27;32.80;95965.47;4989959;28;20403;-70
2023/06/08 09:48:52;;;;;;;9.80;8.83;;;;;;;25.58;32.80;95966.59;4989993;28;20770;-71
2023/06/08 09:51:18;;;;;;;8.77;7.97;;;;;;;25.26;34.44;95973.72;4990189;28;20459;-71
2023/06/08 09:53:45;;;;;;;15.40;9.53;;;;;;;24.98;34.59;95971.31;4989732;28;20490;-71
2023/06/08 09:56:11;;;;;;;25.00;9.30;;;;;;;25.25;33.32;95963.97;4989751;28;20552;-72
2023/06/08 09:58:38;;;;;;;12.50;8.10;;;;;;;25.68;31.26;95967.28;4989842;28;21358;-72
2023/06/08 10:01:09;;;;;;;12.03;7.87;;;;;;;25.54;31.25;95972.31;4989645;28;20414;-72
2023/06/08 10:03:47;;;;;;;8.77;7.73;;;;;;;25.15;30.84;95962.25;4989072;28;20415;-71
2023/06/08 10:06:16;;;;;;;9.30;8.37;;;;;;;25.17;31.57;95956.72;4989474;28;20519;-72
2023/06/08 10:08:45;;;;;;;9.40;8.50;;;;;;;25.19;33.01;95954.75;4989201;28;20462;-70
2023/06/08 10:11:13;;;;;;;10.63;8.13;;;;;;;25.29;32.19;95955.41;4989120;28;20432;-71
2023/06/08 10:13:40;;;;;;;8.03;7.33;;;;;;;25.49;31.61;95957.72;4988939;28;20459;-72
2023/06/08 10:16:05;;;;;;;15.87;9.03;;;;;;;25.02;33.06;95956.56;4989270;28;20416;-71
2023/06/08 10:18:33;;;;;;;10.60;8.63;;;;;;;25.04;32.72;95948.31;4989108;28;20408;-72
2023/06/08 10:21:01;;;;;;;9.50;8.30;;;;;;;25.20;33.01;95951.03;4988978;28;20646;-70
2023/06/08 10:23:27;;;;;;;11.57;7.60;;;;;;;25.56;31.28;95946.13;4988709;28;20459;-72
2023/06/08 10:25:53;;;;;;;10.10;8.33;;;;;;;25.47;32.74;95963.28;4989034;28;20447;-72
2023/06/08 10:28:20;;;;;;;9.63;8.67;;;;;;;25.00;33.63;95949.69;4987727;28;20486;-71
2023/06/08 10:30:45;;;;;;;10.37;8.40;;;;;;;25.65;32.52;95940.72;4988751;28;20410;-71
2023/06/08 10:33:16;;;;;;;8.17;7.27;;;;;;;25.81;32.41;95931.78;4988719;28;20452;-72
2023/06/08 10:36:02;;;;;;;11.23;8.30;;;;;;;26.09;32.39;95926.81;4988676;28;20188;-71
2023/06/08 10:38:28;;;;;;;8.77;7.97;;;;;;;25.90;31.80;95925.38;4988714;28;20418;-72
2023/06/08 10:40:53;;;;;;;13.93;8.43;;;;;;;25.52;30.44;95925.97;4988803;28;20843;-70
2023/06/08 10:43:26;;;;;;;8.53;7.70;;;;;;;25.41;29.76;95923.66;4988532;28;20614;-71
2023/06/08 10:45:51;;;;;;;7.60;6.90;;;;;;;25.19;29.89;95930.56;4988503;28;20173;-70
2023/06/08 10:48:18;;;;;;;8.83;6.50;;;;;;;25.53;28.42;95922.28;4987524;28;20418;-71
2023/06/08 10:50:45;;;;;;;14.60;7.13;;;;;;;25.61;29.16;95926.81;4988967;28;20510;-71
2023/06/08 10:53:11;;;;;;;11.30;6.80;;;;;;;25.64;29.62;95923.75;4988988;28;20458;-70
2023/06/08 10:55:37;;;;;;;8.33;7.43;;;;;;;25.92;29.29;95926.06;4988905;28;20412;-72
2023/06/08 10:58:15;;;;;;;13.13;6.83;;;;;;;25.74;28.18;95919.03;4989427;28;20211;-73
2023/06/08 11:00:42;;;;;;;7.80;6.90;;;;;;;25.53;28.33;95924.97;4989590;28;20221;-71
2023/06/08 11:03:14;;;;;;;7.10;6.40;;;;;;;25.69;27.82;95920.56;4988994;28;20454;-72
2023/06/08 11:05:43;;;;;;;15.07;7.30;;;;;;;25.77;29.06;95928.59;4988666;28;20407;-72
2023/06/08 11:08:09;;;;;;;7.27;6.57;;;;;;;25.52;29.47;95925.97;4988759;28;20913;-73
2023/06/08 11:10:39;;;;;;;9.30;6.90;;;;;;;25.55;26.47;95917.56;4988480;28;20435;-70
2023/06/08 11:13:12;;;;;;;9.07;6.40;;;;;;;25.89;26.71;95908.44;4988408;28;20471;-72
2023/06/08 11:15:44;;;;;;;7.33;6.67;;;;;;;26.26;26.86;95917.66;4988111;28;20443;-71
2023/06/08 11:18:10;;;;;;;6.87;6.23;;;;;;;26.05;27.73;95914.72;4988283;28;20824;-72
2023/06/08 11:20:38;;;;;;;8.43;7.13;;;;;;;25.83;28.94;95921.69;4988463;28;20464;-71
2023/06/08 11:23:08;;;;;;;11.10;6.70;;;;;;;25.89;27.79;95911.13;4988436;28;20842;-72
2023/06/08 11:25:34;;;;;;;11.30;6.93;;;;;;;26.41;26.90;95898.91;4988075;28;20416;-71